sensor_id;sensor_type;location;lat;lon;timestamp;temperature;humidity
23540;DHT22;11947;50.810;4.394;2022-08-01T00:02:31;21.70;99.90
23540;DHT22;11947;50.810;4.394;2022-08-01T00:05:00;21.50;99.90
23540;DHT22;11947;50.810;4.394;2022-08-01T00:07:32;21.60;99.90
23540;DHT22;11947;50.810;4.394;2022-08-01T00:09:59;21.70;99.90
23540;DHT22;11947;50.810;4.394;2022-08-01T00:12:27;21.70;99.90
23540;DHT22;11947;50.810;4.394;2022-08-01T00:14:53;21.80;99.90
23540;DHT22;11947;50.810;4.394;2022-08-01T00:17:20;21.80;99.90
23540;DHT22;11947;50.810;4.394;2022-08-01T00:19:46;21.90;99.90
23540;DHT22;11947;50.810;4.394;2022-08-01T00:22:27;21.90;99.90
23540;DHT22;11947;50.810;4.394;2022-08-01T00:25:02;21.80;99.90
23540;DHT22;11947;50.810;4.394;2022-08-01T00:27:33;21.80;99.90
23540;DHT22;11947;50.810;4.394;2022-08-01T00:30:05;21.90;99.90
23540;DHT22;11947;50.810;4.394;2022-08-01T00:32:38;21.90;99.90
23540;DHT22;11947;50.810;4.394;2022-08-01T00:35:04;21.90;99.90
23540;DHT22;11947;50.810;4.394;2022-08-01T00:37:33;21.80;99.90
23540;DHT22;11947;50.810;4.394;2022-08-01T00:40:02;21.70;99.90
23540;DHT22;11947;50.810;4.394;2022-08-01T00:42:33;21.60;99.90
23540;DHT22;11947;50.810;4.394;2022-08-01T00:44:59;21.50;99.90
23540;DHT22;11947;50.810;4.394;2022-08-01T00:47:31;21.50;99.90
23540;DHT22;11947;50.810;4.394;2022-08-01T00:50:00;21.60;99.90
23540;DHT22;11947;50.810;4.394;2022-08-01T00:52:27;21.60;99.90
23540;DHT22;11947;50.810;4.394;2022-08-01T00:54:54;21.70;99.90
23540;DHT22;11947;50.810;4.394;2022-08-01T00:57:21;21.80;99.90
23540;DHT22;11947;50.810;4.394;2022-08-01T00:59:47;21.70;99.90
23540;DHT22;11947;50.810;4.394;2022-08-01T01:02:14;21.70;99.90
23540;DHT22;11947;50.810;4.394;2022-08-01T01:04:46;21.70;99.90
23540;DHT22;11947;50.810;4.394;2022-08-01T01:08:04;21.80;99.90
23540;DHT22;11947;50.810;4.394;2022-08-01T01:10:56;21.80;99.90
23540;DHT22;11947;50.810;4.394;2022-08-01T01:13:38;21.80;99.90
23540;DHT22;11947;50.810;4.394;2022-08-01T01:16:13;21.70;99.90
23540;DHT22;11947;50.810;4.394;2022-08-01T01:18:49;21.60;99.90
23540;DHT22;11947;50.810;4.394;2022-08-01T01:24:45;21.80;99.90
23540;DHT22;11947;50.810;4.394;2022-08-01T01:27:39;21.80;99.90
23540;DHT22;11947;50.810;4.394;2022-08-01T01:30:11;21.70;99.90
23540;DHT22;11947;50.810;4.394;2022-08-01T01:32:44;21.70;99.90
23540;DHT22;11947;50.810;4.394;2022-08-01T01:35:15;21.60;99.90
23540;DHT22;11947;50.810;4.394;2022-08-01T01:37:44;21.60;99.90
23540;DHT22;11947;50.810;4.394;2022-08-01T01:40:12;21.70;99.90
23540;DHT22;11947;50.810;4.394;2022-08-01T01:42:39;21.70;99.90
23540;DHT22;11947;50.810;4.394;2022-08-01T01:45:07;21.50;99.90
23540;DHT22;11947;50.810;4.394;2022-08-01T01:47:34;21.70;99.90
23540;DHT22;11947;50.810;4.394;2022-08-01T01:50:02;21.80;99.90
23540;DHT22;11947;50.810;4.394;2022-08-01T01:52:29;21.60;99.90
23540;DHT22;11947;50.810;4.394;2022-08-01T01:54:57;21.60;99.90
23540;DHT22;11947;50.810;4.394;2022-08-01T01:57:25;21.40;99.90
23540;DHT22;11947;50.810;4.394;2022-08-01T01:59:53;21.50;99.90
23540;DHT22;11947;50.810;4.394;2022-08-01T02:04:51;21.40;99.90
23540;DHT22;11947;50.810;4.394;2022-08-01T02:07:21;21.50;99.90
23540;DHT22;11947;50.810;4.394;2022-08-01T02:09:54;21.40;99.90
23540;DHT22;11947;50.810;4.394;2022-08-01T02:12:33;21.40;99.90
23540;DHT22;11947;50.810;4.394;2022-08-01T02:15:09;21.40;99.90
23540;DHT22;11947;50.810;4.394;2022-08-01T02:17:59;21.50;99.90
23540;DHT22;11947;50.810;4.394;2022-08-01T02:20:28;21.40;99.90
23540;DHT22;11947;50.810;4.394;2022-08-01T02:23:01;21.40;99.90
23540;DHT22;11947;50.810;4.394;2022-08-01T02:25:39;21.30;99.90
23540;DHT22;11947;50.810;4.394;2022-08-01T02:28:33;21.40;99.90
23540;DHT22;11947;50.810;4.394;2022-08-01T02:31:02;21.40;99.90
23540;DHT22;11947;50.810;4.394;2022-08-01T02:33:36;21.30;99.90
23540;DHT22;11947;50.810;4.394;2022-08-01T02:36:03;21.30;99.90
23540;DHT22;11947;50.810;4.394;2022-08-01T02:38:46;21.20;99.90
23540;DHT22;11947;50.810;4.394;2022-08-01T02:41:23;21.20;99.90
23540;DHT22;11947;50.810;4.394;2022-08-01T02:43:53;21.40;99.90
23540;DHT22;11947;50.810;4.394;2022-08-01T02:46:29;21.20;99.90
23540;DHT22;11947;50.810;4.394;2022-08-01T02:49:00;21.20;99.90
23540;DHT22;11947;50.810;4.394;2022-08-01T02:51:28;21.20;99.90
23540;DHT22;11947;50.810;4.394;2022-08-01T02:54:05;21.20;99.90
23540;DHT22;11947;50.810;4.394;2022-08-01T02:56:50;21.20;99.90
23540;DHT22;11947;50.810;4.394;2022-08-01T02:59:21;21.10;99.90
23540;DHT22;11947;50.810;4.394;2022-08-01T03:01:59;21.30;99.90
23540;DHT22;11947;50.810;4.394;2022-08-01T03:04:32;21.20;99.90
23540;DHT22;11947;50.810;4.394;2022-08-01T03:07:06;21.20;99.90
23540;DHT22;11947;50.810;4.394;2022-08-01T03:09:40;21.20;99.90
23540;DHT22;11947;50.810;4.394;2022-08-01T03:12:17;21.10;99.90
23540;DHT22;11947;50.810;4.394;2022-08-01T03:14:47;21.20;99.90
23540;DHT22;11947;50.810;4.394;2022-08-01T03:17:18;21.20;99.90
23540;DHT22;11947;50.810;4.394;2022-08-01T03:19:47;21.10;99.90
23540;DHT22;11947;50.810;4.394;2022-08-01T03:22:14;21.10;99.90
23540;DHT22;11947;50.810;4.394;2022-08-01T03:24:42;21.10;99.90
23540;DHT22;11947;50.810;4.394;2022-08-01T03:27:19;21.10;99.90
23540;DHT22;11947;50.810;4.394;2022-08-01T03:29:48;21.10;99.90
23540;DHT22;11947;50.810;4.394;2022-08-01T03:32:15;21.20;99.90
23540;DHT22;11947;50.810;4.394;2022-08-01T03:34:42;21.10;99.90
23540;DHT22;11947;50.810;4.394;2022-08-01T03:37:25;21.10;99.90
23540;DHT22;11947;50.810;4.394;2022-08-01T03:39:58;21.10;99.90
23540;DHT22;11947;50.810;4.394;2022-08-01T03:42:33;21.10;99.90
23540;DHT22;11947;50.810;4.394;2022-08-01T03:45:08;21.10;99.90
23540;DHT22;11947;50.810;4.394;2022-08-01T03:47:36;21.00;99.90
23540;DHT22;11947;50.810;4.394;2022-08-01T03:50:06;21.00;99.90
23540;DHT22;11947;50.810;4.394;2022-08-01T03:52:33;21.00;99.90
23540;DHT22;11947;50.810;4.394;2022-08-01T03:55:04;21.00;99.90
23540;DHT22;11947;50.810;4.394;2022-08-01T03:57:32;20.90;99.90
23540;DHT22;11947;50.810;4.394;2022-08-01T03:59:59;20.80;99.90
23540;DHT22;11947;50.810;4.394;2022-08-01T04:02:29;20.80;99.90
23540;DHT22;11947;50.810;4.394;2022-08-01T04:04:55;20.80;99.90
23540;DHT22;11947;50.810;4.394;2022-08-01T04:07:32;20.70;99.90
23540;DHT22;11947;50.810;4.394;2022-08-01T04:09:58;20.80;99.90
23540;DHT22;11947;50.810;4.394;2022-08-01T04:12:24;20.60;99.90
23540;DHT22;11947;50.810;4.394;2022-08-01T04:14:50;20.50;99.90
23540;DHT22;11947;50.810;4.394;2022-08-01T04:17:20;20.50;99.90
23540;DHT22;11947;50.810;4.394;2022-08-01T04:19:47;20.40;99.90
23540;DHT22;11947;50.810;4.394;2022-08-01T04:22:15;20.30;99.90
23540;DHT22;11947;50.810;4.394;2022-08-01T04:24:47;20.30;99.90
23540;DHT22;11947;50.810;4.394;2022-08-01T04:27:21;20.30;99.90
23540;DHT22;11947;50.810;4.394;2022-08-01T04:29:49;20.30;99.90
23540;DHT22;11947;50.810;4.394;2022-08-01T04:32:18;20.20;99.90
23540;DHT22;11947;50.810;4.394;2022-08-01T04:34:47;20.30;99.90
23540;DHT22;11947;50.810;4.394;2022-08-01T04:37:17;20.20;99.90
23540;DHT22;11947;50.810;4.394;2022-08-01T04:39:46;20.20;99.90
23540;DHT22;11947;50.810;4.394;2022-08-01T04:42:17;20.20;99.90
23540;DHT22;11947;50.810;4.394;2022-08-01T04:44:43;20.10;99.90
23540;DHT22;11947;50.810;4.394;2022-08-01T04:47:10;20.10;99.90
23540;DHT22;11947;50.810;4.394;2022-08-01T04:49:36;20.10;99.90
23540;DHT22;11947;50.810;4.394;2022-08-01T04:52:05;20.30;99.90
23540;DHT22;11947;50.810;4.394;2022-08-01T04:54:40;20.10;99.90
23540;DHT22;11947;50.810;4.394;2022-08-01T04:57:06;20.10;99.90
23540;DHT22;11947;50.810;4.394;2022-08-01T04:59:34;20.10;99.90
23540;DHT22;11947;50.810;4.394;2022-08-01T05:02:17;20.00;99.90
23540;DHT22;11947;50.810;4.394;2022-08-01T05:04:45;20.10;99.90
23540;DHT22;11947;50.810;4.394;2022-08-01T05:07:12;20.00;99.90
23540;DHT22;11947;50.810;4.394;2022-08-01T05:09:39;20.00;99.90
23540;DHT22;11947;50.810;4.394;2022-08-01T05:12:12;20.10;99.90
23540;DHT22;11947;50.810;4.394;2022-08-01T05:14:39;20.00;99.90
23540;DHT22;11947;50.810;4.394;2022-08-01T05:17:06;20.00;99.90
23540;DHT22;11947;50.810;4.394;2022-08-01T05:19:42;20.00;99.90
23540;DHT22;11947;50.810;4.394;2022-08-01T05:22:10;20.00;99.90
23540;DHT22;11947;50.810;4.394;2022-08-01T05:24:40;20.00;99.90
23540;DHT22;11947;50.810;4.394;2022-08-01T05:27:06;19.90;99.90
23540;DHT22;11947;50.810;4.394;2022-08-01T05:29:33;19.70;99.90
23540;DHT22;11947;50.810;4.394;2022-08-01T05:31:59;19.90;99.90
23540;DHT22;11947;50.810;4.394;2022-08-01T05:34:26;20.00;99.90
23540;DHT22;11947;50.810;4.394;2022-08-01T05:36:52;19.90;99.90
23540;DHT22;11947;50.810;4.394;2022-08-01T05:39:17;20.00;99.90
23540;DHT22;11947;50.810;4.394;2022-08-01T05:41:43;20.00;99.90
23540;DHT22;11947;50.810;4.394;2022-08-01T05:44:09;20.00;99.90
23540;DHT22;11947;50.810;4.394;2022-08-01T05:46:35;20.00;99.90
23540;DHT22;11947;50.810;4.394;2022-08-01T05:49:03;20.00;99.90
23540;DHT22;11947;50.810;4.394;2022-08-01T05:51:29;20.00;99.90
23540;DHT22;11947;50.810;4.394;2022-08-01T05:53:55;20.00;99.90
23540;DHT22;11947;50.810;4.394;2022-08-01T05:56:21;19.90;99.90
23540;DHT22;11947;50.810;4.394;2022-08-01T05:58:47;20.00;99.90
23540;DHT22;11947;50.810;4.394;2022-08-01T06:01:13;20.00;99.90
23540;DHT22;11947;50.810;4.394;2022-08-01T06:03:39;20.00;99.90
23540;DHT22;11947;50.810;4.394;2022-08-01T06:06:04;20.00;99.90
23540;DHT22;11947;50.810;4.394;2022-08-01T06:08:30;20.00;99.90
23540;DHT22;11947;50.810;4.394;2022-08-01T06:10:57;20.00;99.90
23540;DHT22;11947;50.810;4.394;2022-08-01T06:13:23;20.20;99.90
23540;DHT22;11947;50.810;4.394;2022-08-01T06:15:48;20.20;99.90
23540;DHT22;11947;50.810;4.394;2022-08-01T06:18:14;20.20;99.90
23540;DHT22;11947;50.810;4.394;2022-08-01T06:20:40;20.30;99.90
23540;DHT22;11947;50.810;4.394;2022-08-01T06:23:06;20.30;99.90
23540;DHT22;11947;50.810;4.394;2022-08-01T06:25:32;20.30;99.90
23540;DHT22;11947;50.810;4.394;2022-08-01T06:27:59;20.40;99.90
23540;DHT22;11947;50.810;4.394;2022-08-01T06:30:24;20.50;99.90
23540;DHT22;11947;50.810;4.394;2022-08-01T06:32:50;20.60;99.90
23540;DHT22;11947;50.810;4.394;2022-08-01T06:35:16;20.70;99.90
23540;DHT22;11947;50.810;4.394;2022-08-01T06:37:42;20.80;99.90
23540;DHT22;11947;50.810;4.394;2022-08-01T06:40:10;20.90;99.90
23540;DHT22;11947;50.810;4.394;2022-08-01T06:42:36;21.00;99.90
23540;DHT22;11947;50.810;4.394;2022-08-01T06:45:09;21.00;99.90
23540;DHT22;11947;50.810;4.394;2022-08-01T06:48:06;21.10;99.90
23540;DHT22;11947;50.810;4.394;2022-08-01T06:50:33;21.20;99.90
23540;DHT22;11947;50.810;4.394;2022-08-01T06:53:01;21.30;99.90
23540;DHT22;11947;50.810;4.394;2022-08-01T06:55:27;21.40;99.90
23540;DHT22;11947;50.810;4.394;2022-08-01T06:57:53;21.60;99.90
23540;DHT22;11947;50.810;4.394;2022-08-01T07:00:21;21.60;99.90
23540;DHT22;11947;50.810;4.394;2022-08-01T07:02:49;21.70;99.90
23540;DHT22;11947;50.810;4.394;2022-08-01T07:05:14;21.80;99.90
23540;DHT22;11947;50.810;4.394;2022-08-01T07:07:40;21.80;99.90
23540;DHT22;11947;50.810;4.394;2022-08-01T07:10:06;21.90;99.90
23540;DHT22;11947;50.810;4.394;2022-08-01T07:12:34;21.90;99.90
23540;DHT22;11947;50.810;4.394;2022-08-01T07:15:06;22.00;99.90
23540;DHT22;11947;50.810;4.394;2022-08-01T07:17:32;22.00;99.90
23540;DHT22;11947;50.810;4.394;2022-08-01T07:19:58;22.10;99.90
23540;DHT22;11947;50.810;4.394;2022-08-01T07:22:24;22.20;99.90
23540;DHT22;11947;50.810;4.394;2022-08-01T07:24:49;22.30;99.90
23540;DHT22;11947;50.810;4.394;2022-08-01T07:27:15;22.30;99.90
23540;DHT22;11947;50.810;4.394;2022-08-01T07:29:47;22.30;99.90
23540;DHT22;11947;50.810;4.394;2022-08-01T07:32:37;22.60;99.90
23540;DHT22;11947;50.810;4.394;2022-08-01T07:35:09;22.50;99.90
23540;DHT22;11947;50.810;4.394;2022-08-01T07:37:34;22.50;99.90
23540;DHT22;11947;50.810;4.394;2022-08-01T07:40:00;22.60;99.90
23540;DHT22;11947;50.810;4.394;2022-08-01T07:42:27;22.90;99.90
23540;DHT22;11947;50.810;4.394;2022-08-01T07:44:52;23.10;99.90
23540;DHT22;11947;50.810;4.394;2022-08-01T07:47:25;23.20;99.90
23540;DHT22;11947;50.810;4.394;2022-08-01T07:49:51;23.40;99.90
23540;DHT22;11947;50.810;4.394;2022-08-01T07:52:17;23.50;99.90
23540;DHT22;11947;50.810;4.394;2022-08-01T07:54:43;23.60;99.90
23540;DHT22;11947;50.810;4.394;2022-08-01T07:57:08;23.80;99.90
23540;DHT22;11947;50.810;4.394;2022-08-01T07:59:34;23.70;99.90
23540;DHT22;11947;50.810;4.394;2022-08-01T08:02:01;23.80;99.90
23540;DHT22;11947;50.810;4.394;2022-08-01T08:04:29;23.70;99.90
23540;DHT22;11947;50.810;4.394;2022-08-01T08:06:57;24.10;99.90
23540;DHT22;11947;50.810;4.394;2022-08-01T08:09:36;24.20;99.90
23540;DHT22;11947;50.810;4.394;2022-08-01T08:12:14;24.30;99.90
23540;DHT22;11947;50.810;4.394;2022-08-01T08:14:53;24.10;99.90
23540;DHT22;11947;50.810;4.394;2022-08-01T08:17:22;24.00;99.90
23540;DHT22;11947;50.810;4.394;2022-08-01T08:19:50;23.90;99.90
23540;DHT22;11947;50.810;4.394;2022-08-01T08:22:17;23.90;99.90
23540;DHT22;11947;50.810;4.394;2022-08-01T08:24:46;23.80;99.90
23540;DHT22;11947;50.810;4.394;2022-08-01T08:27:12;23.90;99.90
23540;DHT22;11947;50.810;4.394;2022-08-01T08:29:37;24.10;99.90
23540;DHT22;11947;50.810;4.394;2022-08-01T08:32:04;24.40;99.90
23540;DHT22;11947;50.810;4.394;2022-08-01T08:34:37;24.70;99.90
23540;DHT22;11947;50.810;4.394;2022-08-01T08:37:02;25.10;99.90
23540;DHT22;11947;50.810;4.394;2022-08-01T08:39:28;25.30;99.90
23540;DHT22;11947;50.810;4.394;2022-08-01T08:41:59;25.80;99.90
23540;DHT22;11947;50.810;4.394;2022-08-01T08:44:27;26.20;99.90
23540;DHT22;11947;50.810;4.394;2022-08-01T08:46:53;26.40;99.90
23540;DHT22;11947;50.810;4.394;2022-08-01T08:49:24;26.40;99.90
23540;DHT22;11947;50.810;4.394;2022-08-01T08:52:00;26.30;99.90
23540;DHT22;11947;50.810;4.394;2022-08-01T08:54:31;26.00;99.90
23540;DHT22;11947;50.810;4.394;2022-08-01T08:57:02;25.90;99.90
23540;DHT22;11947;50.810;4.394;2022-08-01T08:59:29;25.60;99.90
23540;DHT22;11947;50.810;4.394;2022-08-01T09:01:58;25.60;99.90
23540;DHT22;11947;50.810;4.394;2022-08-01T09:04:25;25.60;99.90
23540;DHT22;11947;50.810;4.394;2022-08-01T09:06:53;25.80;99.90
23540;DHT22;11947;50.810;4.394;2022-08-01T09:09:20;26.00;99.90
23540;DHT22;11947;50.810;4.394;2022-08-01T09:12:03;26.10;99.90
23540;DHT22;11947;50.810;4.394;2022-08-01T09:14:33;26.30;99.90
23540;DHT22;11947;50.810;4.394;2022-08-01T09:17:23;26.40;99.90
23540;DHT22;11947;50.810;4.394;2022-08-01T09:20:01;26.70;99.90
23540;DHT22;11947;50.810;4.394;2022-08-01T09:22:33;27.00;99.90
23540;DHT22;11947;50.810;4.394;2022-08-01T09:25:02;27.20;99.90
23540;DHT22;11947;50.810;4.394;2022-08-01T09:27:32;27.20;99.90
23540;DHT22;11947;50.810;4.394;2022-08-01T09:30:12;27.50;99.90
23540;DHT22;11947;50.810;4.394;2022-08-01T09:32:59;27.60;99.90
23540;DHT22;11947;50.810;4.394;2022-08-01T09:35:30;27.90;99.90
23540;DHT22;11947;50.810;4.394;2022-08-01T09:38:18;28.00;99.90
23540;DHT22;11947;50.810;4.394;2022-08-01T09:40:45;28.10;99.90
23540;DHT22;11947;50.810;4.394;2022-08-01T09:43:23;28.10;99.90
23540;DHT22;11947;50.810;4.394;2022-08-01T09:45:49;28.00;99.90
23540;DHT22;11947;50.810;4.394;2022-08-01T09:48:15;28.00;99.90
23540;DHT22;11947;50.810;4.394;2022-08-01T09:50:50;28.00;99.90
23540;DHT22;11947;50.810;4.394;2022-08-01T09:53:18;27.90;99.90
23540;DHT22;11947;50.810;4.394;2022-08-01T09:55:44;27.90;99.90
23540;DHT22;11947;50.810;4.394;2022-08-01T09:58:10;27.80;99.90
23540;DHT22;11947;50.810;4.394;2022-08-01T10:00:37;28.00;99.90
23540;DHT22;11947;50.810;4.394;2022-08-01T10:03:23;28.20;99.90
23540;DHT22;11947;50.810;4.394;2022-08-01T10:05:49;28.80;99.90
23540;DHT22;11947;50.810;4.394;2022-08-01T10:08:20;29.10;99.90
23540;DHT22;11947;50.810;4.394;2022-08-01T10:11:08;29.30;99.90
23540;DHT22;11947;50.810;4.394;2022-08-01T10:13:34;29.50;99.90
23540;DHT22;11947;50.810;4.394;2022-08-01T10:16:01;29.50;99.90
23540;DHT22;11947;50.810;4.394;2022-08-01T10:18:30;29.60;99.90
23540;DHT22;11947;50.810;4.394;2022-08-01T10:20:57;29.70;99.90
23540;DHT22;11947;50.810;4.394;2022-08-01T10:23:26;30.00;99.90
23540;DHT22;11947;50.810;4.394;2022-08-01T10:25:53;30.40;99.90
23540;DHT22;11947;50.810;4.394;2022-08-01T10:28:19;30.90;99.90
23540;DHT22;11947;50.810;4.394;2022-08-01T10:30:47;30.80;99.90
23540;DHT22;11947;50.810;4.394;2022-08-01T10:33:13;30.50;99.60
23540;DHT22;11947;50.810;4.394;2022-08-01T10:35:40;30.20;99.90
23540;DHT22;11947;50.810;4.394;2022-08-01T10:38:10;29.80;99.90
23540;DHT22;11947;50.810;4.394;2022-08-01T10:40:37;29.50;99.90
23540;DHT22;11947;50.810;4.394;2022-08-01T10:43:09;28.90;99.90
23540;DHT22;11947;50.810;4.394;2022-08-01T10:45:55;28.90;99.90
23540;DHT22;11947;50.810;4.394;2022-08-01T10:48:31;28.90;99.90
23540;DHT22;11947;50.810;4.394;2022-08-01T10:51:04;28.90;99.90
23540;DHT22;11947;50.810;4.394;2022-08-01T10:53:58;28.80;99.90
23540;DHT22;11947;50.810;4.394;2022-08-01T10:56:46;29.00;99.90
23540;DHT22;11947;50.810;4.394;2022-08-01T10:59:27;29.40;99.90
23540;DHT22;11947;50.810;4.394;2022-08-01T11:01:58;29.70;99.90
23540;DHT22;11947;50.810;4.394;2022-08-01T11:04:41;29.80;99.90
23540;DHT22;11947;50.810;4.394;2022-08-01T11:07:21;30.70;99.90
23540;DHT22;11947;50.810;4.394;2022-08-01T11:10:26;31.70;99.50
23540;DHT22;11947;50.810;4.394;2022-08-01T11:12:54;32.40;98.30
23540;DHT22;11947;50.810;4.394;2022-08-01T11:15:32;33.00;95.60
23540;DHT22;11947;50.810;4.394;2022-08-01T11:18:00;33.60;94.90
23540;DHT22;11947;50.810;4.394;2022-08-01T11:20:28;34.40;94.80
23540;DHT22;11947;50.810;4.394;2022-08-01T11:25:26;34.50;92.90
23540;DHT22;11947;50.810;4.394;2022-08-01T11:39:17;41.00;75.10
23540;DHT22;11947;50.810;4.394;2022-08-01T11:41:38;42.20;70.00
23540;DHT22;11947;50.810;4.394;2022-08-01T11:44:24;43.60;67.90
23540;DHT22;11947;50.810;4.394;2022-08-01T11:47:05;44.50;63.70
23540;DHT22;11947;50.810;4.394;2022-08-01T11:52:15;45.80;58.60
23540;DHT22;11947;50.810;4.394;2022-08-01T11:57:22;45.80;55.90
23540;DHT22;11947;50.810;4.394;2022-08-01T11:59:56;45.90;55.00
23540;DHT22;11947;50.810;4.394;2022-08-01T12:02:53;46.30;54.70
23540;DHT22;11947;50.810;4.394;2022-08-01T12:05:23;46.60;52.30
23540;DHT22;11947;50.810;4.394;2022-08-01T12:07:52;45.90;52.90
23540;DHT22;11947;50.810;4.394;2022-08-01T12:10:21;44.60;53.10
23540;DHT22;11947;50.810;4.394;2022-08-01T12:13:00;44.70;54.10
23540;DHT22;11947;50.810;4.394;2022-08-01T12:15:35;44.20;53.30
23540;DHT22;11947;50.810;4.394;2022-08-01T12:18:06;43.20;56.00
23540;DHT22;11947;50.810;4.394;2022-08-01T12:20:33;43.40;55.00
23540;DHT22;11947;50.810;4.394;2022-08-01T12:23:11;43.30;54.60
23540;DHT22;11947;50.810;4.394;2022-08-01T12:25:38;43.30;53.70
23540;DHT22;11947;50.810;4.394;2022-08-01T12:28:08;42.60;55.00
23540;DHT22;11947;50.810;4.394;2022-08-01T12:30:43;42.10;56.60
23540;DHT22;11947;50.810;4.394;2022-08-01T12:33:20;42.40;55.70
23540;DHT22;11947;50.810;4.394;2022-08-01T12:35:46;43.50;55.40
23540;DHT22;11947;50.810;4.394;2022-08-01T12:38:20;45.10;54.70
23540;DHT22;11947;50.810;4.394;2022-08-01T12:41:10;44.60;51.80
23540;DHT22;11947;50.810;4.394;2022-08-01T12:43:37;42.80;53.60
23540;DHT22;11947;50.810;4.394;2022-08-01T12:46:03;41.10;56.50
23540;DHT22;11947;50.810;4.394;2022-08-01T12:48:31;40.90;56.40
23540;DHT22;11947;50.810;4.394;2022-08-01T12:50:58;41.20;57.10
23540;DHT22;11947;50.810;4.394;2022-08-01T12:53:25;41.40;55.30
23540;DHT22;11947;50.810;4.394;2022-08-01T12:55:54;42.20;55.90
23540;DHT22;11947;50.810;4.394;2022-08-01T12:58:21;44.10;53.50
23540;DHT22;11947;50.810;4.394;2022-08-01T13:00:49;45.40;50.30
23540;DHT22;11947;50.810;4.394;2022-08-01T13:03:20;44.80;52.20
23540;DHT22;11947;50.810;4.394;2022-08-01T13:05:54;44.20;53.40
23540;DHT22;11947;50.810;4.394;2022-08-01T13:11:01;41.00;56.00
23540;DHT22;11947;50.810;4.394;2022-08-01T13:13:41;39.00;59.10
23540;DHT22;11947;50.810;4.394;2022-08-01T13:16:08;37.00;60.00
23540;DHT22;11947;50.810;4.394;2022-08-01T13:18:36;35.60;63.80
23540;DHT22;11947;50.810;4.394;2022-08-01T13:23:35;36.60;64.30
23540;DHT22;11947;50.810;4.394;2022-08-01T13:26:02;36.80;62.90
23540;DHT22;11947;50.810;4.394;2022-08-01T13:28:28;36.40;63.80
23540;DHT22;11947;50.810;4.394;2022-08-01T13:30:58;35.80;65.00
23540;DHT22;11947;50.810;4.394;2022-08-01T13:33:25;35.10;66.90
23540;DHT22;11947;50.810;4.394;2022-08-01T13:35:56;34.60;66.60
23540;DHT22;11947;50.810;4.394;2022-08-01T13:38:23;33.70;69.40
23540;DHT22;11947;50.810;4.394;2022-08-01T13:41:11;32.90;71.50
23540;DHT22;11947;50.810;4.394;2022-08-01T13:43:37;32.40;76.20
23540;DHT22;11947;50.810;4.394;2022-08-01T13:46:02;32.70;74.80
23540;DHT22;11947;50.810;4.394;2022-08-01T13:48:34;33.20;74.00
23540;DHT22;11947;50.810;4.394;2022-08-01T13:51:00;34.90;69.50
23540;DHT22;11947;50.810;4.394;2022-08-01T13:53:26;35.80;68.20
23540;DHT22;11947;50.810;4.394;2022-08-01T13:55:52;35.30;66.20
23540;DHT22;11947;50.810;4.394;2022-08-01T13:58:18;34.40;66.70
23540;DHT22;11947;50.810;4.394;2022-08-01T14:00:43;34.00;69.30
23540;DHT22;11947;50.810;4.394;2022-08-01T14:03:09;33.20;70.00
23540;DHT22;11947;50.810;4.394;2022-08-01T14:05:36;34.60;68.70
23540;DHT22;11947;50.810;4.394;2022-08-01T14:08:04;34.90;65.50
23540;DHT22;11947;50.810;4.394;2022-08-01T14:10:35;34.60;69.60
23540;DHT22;11947;50.810;4.394;2022-08-01T14:13:01;35.10;70.60
23540;DHT22;11947;50.810;4.394;2022-08-01T14:15:28;37.10;65.30
23540;DHT22;11947;50.810;4.394;2022-08-01T14:17:57;38.50;62.50
23540;DHT22;11947;50.810;4.394;2022-08-01T14:20:31;40.30;57.00
23540;DHT22;11947;50.810;4.394;2022-08-01T14:22:56;41.80;56.50
23540;DHT22;11947;50.810;4.394;2022-08-01T14:25:22;42.30;54.10
23540;DHT22;11947;50.810;4.394;2022-08-01T14:27:49;41.70;55.90
23540;DHT22;11947;50.810;4.394;2022-08-01T14:30:15;41.30;55.40
23540;DHT22;11947;50.810;4.394;2022-08-01T14:32:40;41.00;57.30
23540;DHT22;11947;50.810;4.394;2022-08-01T14:35:06;40.10;57.70
23540;DHT22;11947;50.810;4.394;2022-08-01T14:37:36;39.20;57.20
23540;DHT22;11947;50.810;4.394;2022-08-01T14:40:03;37.70;58.80
23540;DHT22;11947;50.810;4.394;2022-08-01T14:42:30;36.30;62.10
23540;DHT22;11947;50.810;4.394;2022-08-01T14:44:58;35.60;63.10
23540;DHT22;11947;50.810;4.394;2022-08-01T14:47:26;35.00;66.70
23540;DHT22;11947;50.810;4.394;2022-08-01T14:49:54;34.30;67.40
23540;DHT22;11947;50.810;4.394;2022-08-01T14:52:20;33.60;68.10
23540;DHT22;11947;50.810;4.394;2022-08-01T14:54:46;33.40;65.60
23540;DHT22;11947;50.810;4.394;2022-08-01T14:57:15;33.00;68.70
23540;DHT22;11947;50.810;4.394;2022-08-01T14:59:44;32.50;70.00
23540;DHT22;11947;50.810;4.394;2022-08-01T15:02:10;31.90;72.30
23540;DHT22;11947;50.810;4.394;2022-08-01T15:04:37;31.40;74.50
23540;DHT22;11947;50.810;4.394;2022-08-01T15:07:03;31.30;73.60
23540;DHT22;11947;50.810;4.394;2022-08-01T15:09:29;31.10;72.80
23540;DHT22;11947;50.810;4.394;2022-08-01T15:11:54;30.70;73.40
23540;DHT22;11947;50.810;4.394;2022-08-01T15:14:20;30.40;75.80
23540;DHT22;11947;50.810;4.394;2022-08-01T15:17:04;30.10;76.90
23540;DHT22;11947;50.810;4.394;2022-08-01T15:19:30;30.00;79.30
23540;DHT22;11947;50.810;4.394;2022-08-01T15:21:56;30.10;77.70
23540;DHT22;11947;50.810;4.394;2022-08-01T15:24:21;30.20;76.20
23540;DHT22;11947;50.810;4.394;2022-08-01T15:26:47;30.20;74.70
23540;DHT22;11947;50.810;4.394;2022-08-01T15:29:15;30.10;77.30
23540;DHT22;11947;50.810;4.394;2022-08-01T15:31:41;30.00;75.00
23540;DHT22;11947;50.810;4.394;2022-08-01T15:34:06;29.80;76.30
23540;DHT22;11947;50.810;4.394;2022-08-01T15:36:32;29.60;76.00
23540;DHT22;11947;50.810;4.394;2022-08-01T15:38:58;29.30;79.50
23540;DHT22;11947;50.810;4.394;2022-08-01T15:41:24;29.20;79.20
23540;DHT22;11947;50.810;4.394;2022-08-01T15:43:51;29.20;78.80
23540;DHT22;11947;50.810;4.394;2022-08-01T15:46:17;29.10;79.10
23540;DHT22;11947;50.810;4.394;2022-08-01T15:48:45;29.20;76.90
23540;DHT22;11947;50.810;4.394;2022-08-01T15:51:11;29.30;80.60
23540;DHT22;11947;50.810;4.394;2022-08-01T15:53:36;29.30;76.60
23540;DHT22;11947;50.810;4.394;2022-08-01T15:56:08;29.30;79.50
23540;DHT22;11947;50.810;4.394;2022-08-01T15:58:35;29.20;78.10
23540;DHT22;11947;50.810;4.394;2022-08-01T16:01:01;28.90;78.20
23540;DHT22;11947;50.810;4.394;2022-08-01T16:03:27;28.80;81.80
23540;DHT22;11947;50.810;4.394;2022-08-01T16:05:53;28.50;79.80
23540;DHT22;11947;50.810;4.394;2022-08-01T16:08:19;28.60;79.20
23540;DHT22;11947;50.810;4.394;2022-08-01T16:10:44;28.50;78.70
23540;DHT22;11947;50.810;4.394;2022-08-01T16:13:11;28.40;80.90
23540;DHT22;11947;50.810;4.394;2022-08-01T16:15:37;28.40;79.80
23540;DHT22;11947;50.810;4.394;2022-08-01T16:18:08;28.50;81.70
23540;DHT22;11947;50.810;4.394;2022-08-01T16:20:34;28.50;80.80